sensor_id;sensor_type;location;lat;lon;timestamp;P1;durP1;ratioP1;P2;durP2;ratioP2
77602;SDS011;66771;52.434;17.056;2023-04-06T16:01:13;7.90;;;5.90;;
77602;SDS011;66771;52.434;17.056;2023-04-06T16:03:41;9.90;;;6.40;;
77602;SDS011;66771;52.434;17.056;2023-04-06T16:06:08;9.30;;;6.70;;
77602;SDS011;66771;52.434;17.056;2023-04-06T16:08:35;7.40;;;6.30;;
77602;SDS011;66771;52.434;17.056;2023-04-06T16:11:03;7.40;;;6.30;;
77602;SDS011;66771;52.434;17.056;2023-04-06T16:13:31;9.30;;;6.70;;
77602;SDS011;66771;52.434;17.056;2023-04-06T16:15:59;8.50;;;6.80;;
77602;SDS011;66771;52.434;17.056;2023-04-06T16:18:26;11.10;;;6.50;;
77602;SDS011;66771;52.434;17.056;2023-04-06T16:20:53;9.00;;;6.50;;
77602;SDS011;66771;52.434;17.056;2023-04-06T16:23:20;14.20;;;7.40;;
77602;SDS011;66771;52.434;17.056;2023-04-06T16:25:49;10.20;;;6.10;;
77602;SDS011;66771;52.434;17.056;2023-04-06T16:28:16;7.70;;;5.90;;
77602;SDS011;66771;52.434;17.056;2023-04-06T16:30:43;8.10;;;6.20;;
77602;SDS011;66771;52.434;17.056;2023-04-06T16:33:10;10.00;;;6.60;;
77602;SDS011;66771;52.434;17.056;2023-04-06T16:35:44;7.60;;;6.10;;
77602;SDS011;66771;52.434;17.056;2023-04-06T16:38:12;9.50;;;5.90;;
77602;SDS011;66771;52.434;17.056;2023-04-06T16:40:39;16.10;;;6.70;;
77602;SDS011;66771;52.434;17.056;2023-04-06T16:43:06;21.00;;;6.70;;
77602;SDS011;66771;52.434;17.056;2023-04-06T16:45:33;9.90;;;6.80;;
77602;SDS011;66771;52.434;17.056;2023-04-06T16:48:00;7.80;;;6.50;;
77602;SDS011;66771;52.434;17.056;2023-04-06T16:50:27;8.50;;;6.90;;
77602;SDS011;66771;52.434;17.056;2023-04-06T16:52:54;10.70;;;6.60;;
77602;SDS011;66771;52.434;17.056;2023-04-06T16:55:21;11.60;;;7.60;;
77602;SDS011;66771;52.434;17.056;2023-04-06T16:57:48;13.20;;;7.80;;
77602;SDS011;66771;52.434;17.056;2023-04-06T17:00:15;12.80;;;7.60;;
77602;SDS011;66771;52.434;17.056;2023-04-06T17:02:45;11.10;;;7.80;;
77602;SDS011;66771;52.434;17.056;2023-04-06T17:05:12;9.70;;;6.50;;
77602;SDS011;66771;52.434;17.056;2023-04-06T17:07:39;13.90;;;8.10;;
77602;SDS011;66771;52.434;17.056;2023-04-06T17:10:06;13.10;;;7.30;;
77602;SDS011;66771;52.434;17.056;2023-04-06T17:12:34;11.50;;;8.10;;
77602;SDS011;66771;52.434;17.056;2023-04-06T17:15:01;11.30;;;7.70;;
77602;SDS011;66771;52.434;17.056;2023-04-06T17:17:28;11.70;;;7.50;;
77602;SDS011;66771;52.434;17.056;2023-04-06T17:19:55;15.80;;;8.90;;
77602;SDS011;66771;52.434;17.056;2023-04-06T17:22:22;17.00;;;8.90;;
77602;SDS011;66771;52.434;17.056;2023-04-06T17:24:49;13.70;;;8.70;;
77602;SDS011;66771;52.434;17.056;2023-04-06T17:27:16;16.30;;;9.00;;
77602;SDS011;66771;52.434;17.056;2023-04-06T17:29:42;15.40;;;8.70;;
77602;SDS011;66771;52.434;17.056;2023-04-06T17:32:09;16.00;;;8.20;;
77602;SDS011;66771;52.434;17.056;2023-04-06T17:34:38;15.30;;;9.00;;
77602;SDS011;66771;52.434;17.056;2023-04-06T17:37:04;12.40;;;8.50;;
77602;SDS011;66771;52.434;17.056;2023-04-06T17:39:32;14.80;;;8.90;;
77602;SDS011;66771;52.434;17.056;2023-04-06T17:41:58;22.10;;;9.90;;
77602;SDS011;66771;52.434;17.056;2023-04-06T17:44:25;21.50;;;10.10;;
77602;SDS011;66771;52.434;17.056;2023-04-06T17:46:52;19.00;;;10.00;;
77602;SDS011;66771;52.434;17.056;2023-04-06T17:49:19;17.70;;;9.90;;
77602;SDS011;66771;52.434;17.056;2023-04-06T17:51:45;20.90;;;10.80;;
77602;SDS011;66771;52.434;17.056;2023-04-06T17:54:12;16.90;;;10.40;;
77602;SDS011;66771;52.434;17.056;2023-04-06T17:56:39;21.70;;;10.00;;
77602;SDS011;66771;52.434;17.056;2023-04-06T17:59:06;43.40;;;11.70;;
77602;SDS011;66771;52.434;17.056;2023-04-06T18:01:37;37.30;;;13.30;;
77602;SDS011;66771;52.434;17.056;2023-04-06T18:04:04;28.80;;;12.30;;
77602;SDS011;66771;52.434;17.056;2023-04-06T18:06:31;23.80;;;11.50;;
77602;SDS011;66771;52.434;17.056;2023-04-06T18:08:58;66.30;;;13.80;;
77602;SDS011;66771;52.434;17.056;2023-04-06T18:11:25;145.60;;;18.00;;
77602;SDS011;66771;52.434;17.056;2023-04-06T18:13:56;190.80;;;21.60;;
77602;SDS011;66771;52.434;17.056;2023-04-06T18:16:23;247.30;;;23.70;;
77602;SDS011;66771;52.434;17.056;2023-04-06T18:18:50;177.30;;;19.00;;
77602;SDS011;66771;52.434;17.056;2023-04-06T18:21:16;86.30;;;14.70;;
77602;SDS011;66771;52.434;17.056;2023-04-06T18:23:43;57.60;;;11.30;;
77602;SDS011;66771;52.434;17.056;2023-04-06T18:26:16;126.00;;;15.90;;
77602;SDS011;66771;52.434;17.056;2023-04-06T18:28:45;213.20;;;21.10;;
77602;SDS011;66771;52.434;17.056;2023-04-06T18:31:12;124.30;;;17.10;;
77602;SDS011;66771;52.434;17.056;2023-04-06T18:33:39;65.80;;;12.50;;
77602;SDS011;66771;52.434;17.056;2023-04-06T18:36:06;36.40;;;10.50;;
77602;SDS011;66771;52.434;17.056;2023-04-06T18:38:35;101.40;;;15.40;;
77602;SDS011;66771;52.434;17.056;2023-04-06T18:41:03;86.70;;;13.70;;
77602;SDS011;66771;52.434;17.056;2023-04-06T18:43:31;63.60;;;12.90;;
77602;SDS011;66771;52.434;17.056;2023-04-06T18:45:57;61.50;;;13.00;;
77602;SDS011;66771;52.434;17.056;2023-04-06T18:48:25;74.80;;;13.90;;
77602;SDS011;66771;52.434;17.056;2023-04-06T18:50:56;75.40;;;13.20;;
77602;SDS011;66771;52.434;17.056;2023-04-06T18:53:29;131.50;;;17.50;;
77602;SDS011;66771;52.434;17.056;2023-04-06T18:55:57;95.60;;;16.80;;
77602;SDS011;66771;52.434;17.056;2023-04-06T18:58:25;42.10;;;13.50;;
77602;SDS011;66771;52.434;17.056;2023-04-06T19:00:52;38.20;;;11.90;;
77602;SDS011;66771;52.434;17.056;2023-04-06T19:03:19;33.50;;;11.70;;
77602;SDS011;66771;52.434;17.056;2023-04-06T19:05:46;73.50;;;13.50;;
77602;SDS011;66771;52.434;17.056;2023-04-06T19:08:12;59.40;;;12.70;;
77602;SDS011;66771;52.434;17.056;2023-04-06T19:10:39;75.00;;;14.80;;
77602;SDS011;66771;52.434;17.056;2023-04-06T19:13:06;37.20;;;12.70;;
77602;SDS011;66771;52.434;17.056;2023-04-06T19:15:33;23.10;;;10.50;;
77602;SDS011;66771;52.434;17.056;2023-04-06T19:18:01;17.70;;;10.50;;
77602;SDS011;66771;52.434;17.056;2023-04-06T19:20:32;20.60;;;11.20;;
77602;SDS011;66771;52.434;17.056;2023-04-06T19:23:00;16.80;;;11.20;;
77602;SDS011;66771;52.434;17.056;2023-04-06T19:25:28;26.60;;;13.00;;
77602;SDS011;66771;52.434;17.056;2023-04-06T19:27:54;25.60;;;12.80;;
77602;SDS011;66771;52.434;17.056;2023-04-06T19:30:21;24.40;;;13.20;;
77602;SDS011;66771;52.434;17.056;2023-04-06T19:32:49;23.00;;;13.00;;
77602;SDS011;66771;52.434;17.056;2023-04-06T19:35:16;20.40;;;11.40;;
77602;SDS011;66771;52.434;17.056;2023-04-06T19:37:42;24.40;;;11.90;;
77602;SDS011;66771;52.434;17.056;2023-04-06T19:40:10;20.40;;;10.80;;
77602;SDS011;66771;52.434;17.056;2023-04-06T19:42:37;18.20;;;10.50;;
77602;SDS011;66771;52.434;17.056;2023-04-06T19:45:04;18.00;;;10.30;;
77602;SDS011;66771;52.434;17.056;2023-04-06T19:47:32;21.30;;;12.90;;
77602;SDS011;66771;52.434;17.056;2023-04-06T19:50:02;19.60;;;12.20;;
77602;SDS011;66771;52.434;17.056;2023-04-06T19:52:31;20.80;;;11.10;;
77602;SDS011;66771;52.434;17.056;2023-04-06T19:54:58;14.70;;;11.00;;
77602;SDS011;66771;52.434;17.056;2023-04-06T19:57:25;16.60;;;11.10;;
77602;SDS011;66771;52.434;17.056;2023-04-06T19:59:53;14.80;;;10.80;;
77602;SDS011;66771;52.434;17.056;2023-04-06T20:02:21;14.60;;;9.00;;
77602;SDS011;66771;52.434;17.056;2023-04-06T20:04:48;17.10;;;9.70;;
77602;SDS011;66771;52.434;17.056;2023-04-06T20:07:15;17.60;;;10.60;;
77602;SDS011;66771;52.434;17.056;2023-04-06T20:09:42;17.40;;;9.60;;
77602;SDS011;66771;52.434;17.056;2023-04-06T20:12:08;17.90;;;9.70;;
77602;SDS011;66771;52.434;17.056;2023-04-06T20:14:35;17.90;;;9.60;;
77602;SDS011;66771;52.434;17.056;2023-04-06T20:17:02;16.20;;;9.70;;
77602;SDS011;66771;52.434;17.056;2023-04-06T20:19:29;14.30;;;9.70;;
77602;SDS011;66771;52.434;17.056;2023-04-06T20:21:56;16.60;;;10.10;;
77602;SDS011;66771;52.434;17.056;2023-04-06T20:24:24;19.50;;;10.20;;
77602;SDS011;66771;52.434;17.056;2023-04-06T20:26:51;23.30;;;10.50;;
77602;SDS011;66771;52.434;17.056;2023-04-06T20:29:18;27.00;;;11.50;;
77602;SDS011;66771;52.434;17.056;2023-04-06T20:31:45;29.90;;;13.50;;
77602;SDS011;66771;52.434;17.056;2023-04-06T20:34:12;18.40;;;11.70;;
77602;SDS011;66771;52.434;17.056;2023-04-06T20:36:39;17.00;;;10.00;;
77602;SDS011;66771;52.434;17.056;2023-04-06T20:39:06;17.90;;;10.50;;
77602;SDS011;66771;52.434;17.056;2023-04-06T20:41:33;16.50;;;10.40;;
77602;SDS011;66771;52.434;17.056;2023-04-06T20:44:00;20.20;;;12.20;;
77602;SDS011;66771;52.434;17.056;2023-04-06T20:46:27;20.00;;;11.50;;
77602;SDS011;66771;52.434;17.056;2023-04-06T20:48:53;21.90;;;12.20;;
77602;SDS011;66771;52.434;17.056;2023-04-06T20:51:21;17.40;;;12.40;;
77602;SDS011;66771;52.434;17.056;2023-04-06T20:53:51;18.60;;;11.40;;
77602;SDS011;66771;52.434;17.056;2023-04-06T20:56:19;22.00;;;11.80;;
77602;SDS011;66771;52.434;17.056;2023-04-06T20:58:47;15.80;;;10.60;;
77602;SDS011;66771;52.434;17.056;2023-04-06T21:01:14;21.60;;;11.30;;
77602;SDS011;66771;52.434;17.056;2023-04-06T21:03:42;23.50;;;10.20;;
77602;SDS011;66771;52.434;17.056;2023-04-06T21:06:10;15.20;;;9.80;;
77602;SDS011;66771;52.434;17.056;2023-04-06T21:08:37;19.60;;;10.60;;
77602;SDS011;66771;52.434;17.056;2023-04-06T21:11:04;22.30;;;11.10;;
77602;SDS011;66771;52.434;17.056;2023-04-06T21:13:31;20.80;;;10.20;;
77602;SDS011;66771;52.434;17.056;2023-04-06T21:15:59;18.40;;;10.00;;
77602;SDS011;66771;52.434;17.056;2023-04-06T21:18:26;16.00;;;9.10;;
77602;SDS011;66771;52.434;17.056;2023-04-06T21:20:53;18.20;;;10.30;;
77602;SDS011;66771;52.434;17.056;2023-04-06T21:23:20;17.20;;;9.40;;
77602;SDS011;66771;52.434;17.056;2023-04-06T21:25:48;15.70;;;8.90;;
77602;SDS011;66771;52.434;17.056;2023-04-06T21:28:17;18.50;;;8.40;;
77602;SDS011;66771;52.434;17.056;2023-04-06T21:30:46;21.60;;;7.80;;
77602;SDS011;66771;52.434;17.056;2023-04-06T21:33:13;19.90;;;8.10;;
77602;SDS011;66771;52.434;17.056;2023-04-06T21:35:39;11.90;;;7.50;;
77602;SDS011;66771;52.434;17.056;2023-04-06T21:38:07;12.60;;;7.10;;
77602;SDS011;66771;52.434;17.056;2023-04-06T21:40:34;13.50;;;7.60;;
77602;SDS011;66771;52.434;17.056;2023-04-06T21:43:01;16.00;;;8.10;;
77602;SDS011;66771;52.434;17.056;2023-04-06T21:45:28;14.90;;;7.60;;
77602;SDS011;66771;52.434;17.056;2023-04-06T21:47:55;12.00;;;7.60;;
77602;SDS011;66771;52.434;17.056;2023-04-06T21:50:22;14.90;;;7.70;;
77602;SDS011;66771;52.434;17.056;2023-04-06T21:52:49;13.60;;;8.10;;
77602;SDS011;66771;52.434;17.056;2023-04-06T21:55:15;14.70;;;7.50;;
77602;SDS011;66771;52.434;17.056;2023-04-06T21:57:43;13.80;;;7.90;;
77602;SDS011;66771;52.434;17.056;2023-04-06T22:00:10;16.90;;;7.20;;
77602;SDS011;66771;52.434;17.056;2023-04-06T22:02:43;17.10;;;7.90;;
77602;SDS011;66771;52.434;17.056;2023-04-06T22:05:11;15.30;;;8.20;;
77602;SDS011;66771;52.434;17.056;2023-04-06T22:07:38;12.80;;;7.50;;
77602;SDS011;66771;52.434;17.056;2023-04-06T22:10:05;14.50;;;8.60;;
77602;SDS011;66771;52.434;17.056;2023-04-06T22:12:33;17.00;;;8.40;;
77602;SDS011;66771;52.434;17.056;2023-04-06T22:14:59;12.50;;;8.10;;
77602;SDS011;66771;52.434;17.056;2023-04-06T22:17:26;14.70;;;7.90;;
77602;SDS011;66771;52.434;17.056;2023-04-06T22:19:53;18.30;;;8.80;;
77602;SDS011;66771;52.434;17.056;2023-04-06T22:22:20;18.20;;;7.90;;
77602;SDS011;66771;52.434;17.056;2023-04-06T22:24:46;12.50;;;7.30;;
77602;SDS011;66771;52.434;17.056;2023-04-06T22:27:13;13.10;;;7.80;;
77602;SDS011;66771;52.434;17.056;2023-04-06T22:29:40;13.00;;;7.30;;
77602;SDS011;66771;52.434;17.056;2023-04-06T22:32:07;15.70;;;7.40;;
77602;SDS011;66771;52.434;17.056;2023-04-06T22:34:33;13.00;;;7.30;;
77602;SDS011;66771;52.434;17.056;2023-04-06T22:37:00;12.30;;;7.30;;
77602;SDS011;66771;52.434;17.056;2023-04-06T22:39:27;15.90;;;7.10;;
77602;SDS011;66771;52.434;17.056;2023-04-06T22:41:54;12.70;;;7.50;;
77602;SDS011;66771;52.434;17.056;2023-04-06T22:44:20;14.10;;;7.00;;
77602;SDS011;66771;52.434;17.056;2023-04-06T22:46:47;11.80;;;7.30;;
77602;SDS011;66771;52.434;17.056;2023-04-06T22:49:14;11.50;;;6.30;;
77602;SDS011;66771;52.434;17.056;2023-04-06T22:51:41;13.80;;;6.70;;
77602;SDS011;66771;52.434;17.056;2023-04-06T22:54:08;10.60;;;7.10;;
77602;SDS011;66771;52.434;17.056;2023-04-06T22:56:35;9.60;;;5.90;;
77602;SDS011;66771;52.434;17.056;2023-04-06T22:59:02;13.90;;;5.30;;
77602;SDS011;66771;52.434;17.056;2023-04-06T23:01:29;14.50;;;6.10;;
77602;SDS011;66771;52.434;17.056;2023-04-06T23:03:56;12.00;;;6.40;;
77602;SDS011;66771;52.434;17.056;2023-04-06T23:06:23;12.10;;;7.00;;
77602;SDS011;66771;52.434;17.056;2023-04-06T23:08:49;12.20;;;6.60;;
77602;SDS011;66771;52.434;17.056;2023-04-06T23:11:16;11.70;;;6.90;;
77602;SDS011;66771;52.434;17.056;2023-04-06T23:13:43;12.80;;;7.50;;
77602;SDS011;66771;52.434;17.056;2023-04-06T23:16:10;12.30;;;6.50;;
77602;SDS011;66771;52.434;17.056;2023-04-06T23:18:36;10.20;;;6.20;;
77602;SDS011;66771;52.434;17.056;2023-04-06T23:21:06;10.00;;;6.10;;
77602;SDS011;66771;52.434;17.056;2023-04-06T23:23:35;11.10;;;6.20;;
77602;SDS011;66771;52.434;17.056;2023-04-06T23:26:02;10.30;;;5.90;;
77602;SDS011;66771;52.434;17.056;2023-04-06T23:28:29;10.30;;;6.20;;
77602;SDS011;66771;52.434;17.056;2023-04-06T23:30:55;11.40;;;5.20;;
77602;SDS011;66771;52.434;17.056;2023-04-06T23:33:22;9.40;;;5.30;;
77602;SDS011;66771;52.434;17.056;2023-04-06T23:35:49;7.30;;;5.20;;
77602;SDS011;66771;52.434;17.056;2023-04-06T23:38:16;9.40;;;6.00;;
77602;SDS011;66771;52.434;17.056;2023-04-06T23:40:43;8.30;;;5.30;;
77602;SDS011;66771;52.434;17.056;2023-04-06T23:43:10;8.70;;;5.30;;
77602;SDS011;66771;52.434;17.056;2023-04-06T23:45:40;10.90;;;4.70;;
77602;SDS011;66771;52.434;17.056;2023-04-06T23:48:08;9.10;;;5.10;;
77602;SDS011;66771;52.434;17.056;2023-04-06T23:50:35;12.10;;;5.40;;
77602;SDS011;66771;52.434;17.056;2023-04-06T23:53:02;8.20;;;5.60;;
77602;SDS011;66771;52.434;17.056;2023-04-06T23:55:29;9.60;;;5.50;;
77602;SDS011;66771;52.434;17.056;2023-04-06T23:57:57;11.70;;;6.80;;
